sensor_id;sensor_type;location;lat;lon;timestamp;P1;durP1;ratioP1;P2;durP2;ratioP2
8964;SDS011;4517;49.020;12.066;2022-11-15T00:00:27;34.70;;;21.40;;
8964;SDS011;4517;49.020;12.066;2022-11-15T00:02:53;30.00;;;19.43;;
8964;SDS011;4517;49.020;12.066;2022-11-15T00:05:18;29.33;;;19.87;;
8964;SDS011;4517;49.020;12.066;2022-11-15T00:07:44;27.90;;;20.77;;
8964;SDS011;4517;49.020;12.066;2022-11-15T00:10:10;30.57;;;19.90;;
8964;SDS011;4517;49.020;12.066;2022-11-15T00:12:35;26.80;;;19.60;;
8964;SDS011;4517;49.020;12.066;2022-11-15T00:15:01;26.07;;;19.70;;
8964;SDS011;4517;49.020;12.066;2022-11-15T00:17:26;25.77;;;18.67;;
8964;SDS011;4517;49.020;12.066;2022-11-15T00:19:52;25.33;;;18.27;;
8964;SDS011;4517;49.020;12.066;2022-11-15T00:22:17;22.93;;;17.80;;
8964;SDS011;4517;49.020;12.066;2022-11-15T00:24:43;28.47;;;18.23;;
8964;SDS011;4517;49.020;12.066;2022-11-15T00:27:09;26.70;;;19.00;;
8964;SDS011;4517;49.020;12.066;2022-11-15T00:29:34;26.07;;;19.30;;
8964;SDS011;4517;49.020;12.066;2022-11-15T00:32:02;27.37;;;18.50;;
8964;SDS011;4517;49.020;12.066;2022-11-15T00:34:27;30.10;;;19.27;;
8964;SDS011;4517;49.020;12.066;2022-11-15T00:36:53;27.60;;;19.30;;
8964;SDS011;4517;49.020;12.066;2022-11-15T00:39:18;25.70;;;19.53;;
8964;SDS011;4517;49.020;12.066;2022-11-15T00:41:44;25.23;;;18.47;;
8964;SDS011;4517;49.020;12.066;2022-11-15T00:44:09;24.27;;;18.50;;
8964;SDS011;4517;49.020;12.066;2022-11-15T00:46:35;24.27;;;18.20;;
8964;SDS011;4517;49.020;12.066;2022-11-15T00:49:00;27.33;;;19.27;;
8964;SDS011;4517;49.020;12.066;2022-11-15T00:51:26;30.93;;;19.50;;
8964;SDS011;4517;49.020;12.066;2022-11-15T00:53:52;30.40;;;19.57;;
8964;SDS011;4517;49.020;12.066;2022-11-15T00:56:17;22.97;;;17.30;;
8964;SDS011;4517;49.020;12.066;2022-11-15T00:58:44;25.27;;;18.77;;
8964;SDS011;4517;49.020;12.066;2022-11-15T01:01:10;26.27;;;19.40;;
8964;SDS011;4517;49.020;12.066;2022-11-15T01:03:38;24.80;;;18.50;;
8964;SDS011;4517;49.020;12.066;2022-11-15T01:06:05;23.97;;;18.60;;
8964;SDS011;4517;49.020;12.066;2022-11-15T01:08:31;24.53;;;16.97;;
8964;SDS011;4517;49.020;12.066;2022-11-15T01:11:01;27.57;;;18.33;;
8964;SDS011;4517;49.020;12.066;2022-11-15T01:13:29;32.07;;;17.17;;
8964;SDS011;4517;49.020;12.066;2022-11-15T01:15:56;25.47;;;18.13;;
8964;SDS011;4517;49.020;12.066;2022-11-15T01:18:22;22.37;;;17.50;;
8964;SDS011;4517;49.020;12.066;2022-11-15T01:20:47;26.77;;;17.30;;
8964;SDS011;4517;49.020;12.066;2022-11-15T01:23:13;26.07;;;18.07;;
8964;SDS011;4517;49.020;12.066;2022-11-15T01:25:39;25.57;;;17.63;;
8964;SDS011;4517;49.020;12.066;2022-11-15T01:28:05;25.40;;;17.43;;
8964;SDS011;4517;49.020;12.066;2022-11-15T01:30:30;25.97;;;17.73;;
8964;SDS011;4517;49.020;12.066;2022-11-15T01:32:56;28.40;;;16.70;;
8964;SDS011;4517;49.020;12.066;2022-11-15T01:35:21;23.93;;;16.53;;
8964;SDS011;4517;49.020;12.066;2022-11-15T01:37:47;22.00;;;17.27;;
8964;SDS011;4517;49.020;12.066;2022-11-15T01:40:12;25.87;;;17.97;;
8964;SDS011;4517;49.020;12.066;2022-11-15T01:42:38;23.80;;;18.90;;
8964;SDS011;4517;49.020;12.066;2022-11-15T01:45:04;33.63;;;18.93;;
8964;SDS011;4517;49.020;12.066;2022-11-15T01:47:37;21.70;;;17.63;;
8964;SDS011;4517;49.020;12.066;2022-11-15T01:50:10;23.27;;;17.30;;
8964;SDS011;4517;49.020;12.066;2022-11-15T01:52:38;26.17;;;17.97;;
8964;SDS011;4517;49.020;12.066;2022-11-15T01:55:07;28.37;;;18.90;;
8964;SDS011;4517;49.020;12.066;2022-11-15T01:57:39;24.77;;;17.23;;
8964;SDS011;4517;49.020;12.066;2022-11-15T02:00:07;22.73;;;17.27;;
8964;SDS011;4517;49.020;12.066;2022-11-15T02:02:33;29.90;;;19.90;;
8964;SDS011;4517;49.020;12.066;2022-11-15T02:05:02;27.47;;;18.80;;
8964;SDS011;4517;49.020;12.066;2022-11-15T02:07:28;28.23;;;17.37;;
8964;SDS011;4517;49.020;12.066;2022-11-15T02:09:55;28.80;;;18.13;;
8964;SDS011;4517;49.020;12.066;2022-11-15T02:12:24;25.77;;;19.03;;
8964;SDS011;4517;49.020;12.066;2022-11-15T02:14:51;27.80;;;19.43;;
8964;SDS011;4517;49.020;12.066;2022-11-15T02:17:23;24.50;;;17.20;;
8964;SDS011;4517;49.020;12.066;2022-11-15T02:20:03;30.83;;;17.90;;
8964;SDS011;4517;49.020;12.066;2022-11-15T02:28:53;25.43;;;17.67;;
8964;SDS011;4517;49.020;12.066;2022-11-15T02:35:02;26.40;;;17.50;;
8964;SDS011;4517;49.020;12.066;2022-11-15T02:37:44;22.33;;;16.80;;
8964;SDS011;4517;49.020;12.066;2022-11-15T02:43:11;26.30;;;17.20;;
8964;SDS011;4517;49.020;12.066;2022-11-15T02:46:05;31.33;;;18.10;;
8964;SDS011;4517;49.020;12.066;2022-11-15T02:48:48;29.00;;;18.47;;
8964;SDS011;4517;49.020;12.066;2022-11-15T02:51:15;24.47;;;17.93;;
8964;SDS011;4517;49.020;12.066;2022-11-15T02:53:41;29.37;;;19.50;;
8964;SDS011;4517;49.020;12.066;2022-11-15T02:56:07;27.33;;;18.70;;
8964;SDS011;4517;49.020;12.066;2022-11-15T03:07:24;26.20;;;18.70;;
8964;SDS011;4517;49.020;12.066;2022-11-15T03:10:12;27.00;;;18.83;;
8964;SDS011;4517;49.020;12.066;2022-11-15T03:12:55;27.20;;;17.83;;
8964;SDS011;4517;49.020;12.066;2022-11-15T03:15:31;29.00;;;18.17;;
8964;SDS011;4517;49.020;12.066;2022-11-15T03:18:07;28.07;;;18.13;;
8964;SDS011;4517;49.020;12.066;2022-11-15T03:20:35;34.97;;;17.73;;
8964;SDS011;4517;49.020;12.066;2022-11-15T03:23:03;27.33;;;18.17;;
8964;SDS011;4517;49.020;12.066;2022-11-15T03:25:31;25.83;;;18.03;;
8964;SDS011;4517;49.020;12.066;2022-11-15T03:28:00;27.80;;;19.03;;
8964;SDS011;4517;49.020;12.066;2022-11-15T03:30:30;24.33;;;16.70;;
8964;SDS011;4517;49.020;12.066;2022-11-15T03:33:00;25.47;;;18.43;;
8964;SDS011;4517;49.020;12.066;2022-11-15T03:35:29;26.10;;;17.40;;
8964;SDS011;4517;49.020;12.066;2022-11-15T03:40:41;22.03;;;17.50;;
8964;SDS011;4517;49.020;12.066;2022-11-15T03:43:23;28.67;;;18.20;;
8964;SDS011;4517;49.020;12.066;2022-11-15T03:46:02;27.40;;;18.27;;
8964;SDS011;4517;49.020;12.066;2022-11-15T03:48:51;23.40;;;18.47;;
8964;SDS011;4517;49.020;12.066;2022-11-15T03:51:22;31.53;;;18.13;;
8964;SDS011;4517;49.020;12.066;2022-11-15T03:53:48;28.50;;;18.47;;
8964;SDS011;4517;49.020;12.066;2022-11-15T03:56:13;25.10;;;18.27;;
8964;SDS011;4517;49.020;12.066;2022-11-15T03:58:39;24.50;;;16.60;;
8964;SDS011;4517;49.020;12.066;2022-11-15T04:01:04;24.50;;;17.57;;
8964;SDS011;4517;49.020;12.066;2022-11-15T04:03:30;29.97;;;19.03;;
8964;SDS011;4517;49.020;12.066;2022-11-15T04:05:55;26.47;;;18.20;;
8964;SDS011;4517;49.020;12.066;2022-11-15T04:08:21;29.23;;;18.50;;
8964;SDS011;4517;49.020;12.066;2022-11-15T04:10:48;25.47;;;17.83;;
8964;SDS011;4517;49.020;12.066;2022-11-15T04:13:14;26.50;;;18.37;;
8964;SDS011;4517;49.020;12.066;2022-11-15T04:15:39;35.87;;;18.80;;
8964;SDS011;4517;49.020;12.066;2022-11-15T04:18:05;23.03;;;18.07;;
8964;SDS011;4517;49.020;12.066;2022-11-15T04:20:30;27.60;;;19.40;;
8964;SDS011;4517;49.020;12.066;2022-11-15T04:23:35;28.23;;;18.97;;
8964;SDS011;4517;49.020;12.066;2022-11-15T04:26:20;27.90;;;19.43;;
8964;SDS011;4517;49.020;12.066;2022-11-15T04:28:46;28.37;;;18.63;;
8964;SDS011;4517;49.020;12.066;2022-11-15T04:31:30;31.10;;;18.90;;
8964;SDS011;4517;49.020;12.066;2022-11-15T04:33:56;28.40;;;20.20;;
8964;SDS011;4517;49.020;12.066;2022-11-15T04:36:22;32.03;;;19.37;;
8964;SDS011;4517;49.020;12.066;2022-11-15T04:39:06;31.73;;;19.70;;
8964;SDS011;4517;49.020;12.066;2022-11-15T04:41:32;30.93;;;18.93;;
8964;SDS011;4517;49.020;12.066;2022-11-15T04:43:57;29.70;;;19.20;;
8964;SDS011;4517;49.020;12.066;2022-11-15T04:46:23;30.83;;;19.67;;
8964;SDS011;4517;49.020;12.066;2022-11-15T04:48:50;33.07;;;18.30;;
8964;SDS011;4517;49.020;12.066;2022-11-15T04:51:16;37.33;;;18.80;;
8964;SDS011;4517;49.020;12.066;2022-11-15T04:53:41;35.13;;;20.70;;
8964;SDS011;4517;49.020;12.066;2022-11-15T04:56:07;33.90;;;19.43;;
8964;SDS011;4517;49.020;12.066;2022-11-15T04:58:33;32.33;;;20.73;;
8964;SDS011;4517;49.020;12.066;2022-11-15T05:01:06;32.27;;;20.97;;
8964;SDS011;4517;49.020;12.066;2022-11-15T05:03:36;28.00;;;20.37;;
8964;SDS011;4517;49.020;12.066;2022-11-15T05:06:40;32.70;;;18.93;;
8964;SDS011;4517;49.020;12.066;2022-11-15T05:09:06;33.60;;;20.73;;
8964;SDS011;4517;49.020;12.066;2022-11-15T05:11:32;32.03;;;20.07;;
8964;SDS011;4517;49.020;12.066;2022-11-15T05:13:57;33.03;;;20.87;;
8964;SDS011;4517;49.020;12.066;2022-11-15T05:16:23;27.83;;;19.67;;
8964;SDS011;4517;49.020;12.066;2022-11-15T05:18:51;30.37;;;18.60;;
8964;SDS011;4517;49.020;12.066;2022-11-15T05:21:18;29.83;;;17.83;;
8964;SDS011;4517;49.020;12.066;2022-11-15T05:23:43;28.70;;;19.47;;
8964;SDS011;4517;49.020;12.066;2022-11-15T05:26:09;32.37;;;19.40;;
8964;SDS011;4517;49.020;12.066;2022-11-15T05:28:35;29.87;;;19.20;;
8964;SDS011;4517;49.020;12.066;2022-11-15T05:31:05;28.70;;;18.23;;
8964;SDS011;4517;49.020;12.066;2022-11-15T05:33:33;31.03;;;19.50;;
8964;SDS011;4517;49.020;12.066;2022-11-15T05:36:02;28.77;;;18.20;;
8964;SDS011;4517;49.020;12.066;2022-11-15T05:38:32;26.90;;;18.77;;
8964;SDS011;4517;49.020;12.066;2022-11-15T05:40:59;39.67;;;20.10;;
8964;SDS011;4517;49.020;12.066;2022-11-15T05:43:25;27.87;;;17.70;;
8964;SDS011;4517;49.020;12.066;2022-11-15T05:45:51;27.00;;;18.50;;
8964;SDS011;4517;49.020;12.066;2022-11-15T05:48:16;30.63;;;17.73;;
8964;SDS011;4517;49.020;12.066;2022-11-15T05:50:43;27.63;;;18.63;;
8964;SDS011;4517;49.020;12.066;2022-11-15T05:53:11;32.63;;;18.17;;
8964;SDS011;4517;49.020;12.066;2022-11-15T05:55:39;33.23;;;19.60;;
8964;SDS011;4517;49.020;12.066;2022-11-15T05:58:05;29.30;;;19.40;;
8964;SDS011;4517;49.020;12.066;2022-11-15T06:00:31;28.13;;;18.60;;
8964;SDS011;4517;49.020;12.066;2022-11-15T06:02:57;29.73;;;19.90;;
8964;SDS011;4517;49.020;12.066;2022-11-15T06:05:23;31.13;;;18.57;;
8964;SDS011;4517;49.020;12.066;2022-11-15T06:07:48;28.40;;;18.70;;
8964;SDS011;4517;49.020;12.066;2022-11-15T06:10:14;31.20;;;19.10;;
8964;SDS011;4517;49.020;12.066;2022-11-15T06:12:39;28.97;;;18.97;;
8964;SDS011;4517;49.020;12.066;2022-11-15T06:15:05;36.30;;;20.23;;
8964;SDS011;4517;49.020;12.066;2022-11-15T06:17:31;29.33;;;17.87;;
8964;SDS011;4517;49.020;12.066;2022-11-15T06:19:56;45.80;;;19.73;;
8964;SDS011;4517;49.020;12.066;2022-11-15T06:22:22;25.97;;;19.03;;
8964;SDS011;4517;49.020;12.066;2022-11-15T06:24:48;29.80;;;19.60;;
8964;SDS011;4517;49.020;12.066;2022-11-15T06:27:13;38.93;;;21.63;;
8964;SDS011;4517;49.020;12.066;2022-11-15T06:29:39;38.67;;;19.30;;
8964;SDS011;4517;49.020;12.066;2022-11-15T06:32:05;33.10;;;19.10;;
8964;SDS011;4517;49.020;12.066;2022-11-15T06:34:30;29.47;;;20.90;;
8964;SDS011;4517;49.020;12.066;2022-11-15T06:36:56;32.47;;;19.83;;
8964;SDS011;4517;49.020;12.066;2022-11-15T06:39:21;25.57;;;19.20;;
8964;SDS011;4517;49.020;12.066;2022-11-15T06:41:47;28.40;;;19.23;;
8964;SDS011;4517;49.020;12.066;2022-11-15T06:44:13;29.47;;;19.83;;
8964;SDS011;4517;49.020;12.066;2022-11-15T06:46:39;39.70;;;22.30;;
8964;SDS011;4517;49.020;12.066;2022-11-15T06:49:05;32.50;;;20.03;;
8964;SDS011;4517;49.020;12.066;2022-11-15T06:51:30;29.40;;;19.37;;
8964;SDS011;4517;49.020;12.066;2022-11-15T06:53:56;33.00;;;22.83;;
8964;SDS011;4517;49.020;12.066;2022-11-15T06:56:21;35.50;;;21.87;;
8964;SDS011;4517;49.020;12.066;2022-11-15T06:58:47;29.43;;;19.40;;
8964;SDS011;4517;49.020;12.066;2022-11-15T07:01:12;33.13;;;21.30;;
8964;SDS011;4517;49.020;12.066;2022-11-15T07:03:39;44.70;;;22.70;;
8964;SDS011;4517;49.020;12.066;2022-11-15T07:06:06;43.00;;;24.70;;
8964;SDS011;4517;49.020;12.066;2022-11-15T07:08:33;51.70;;;27.70;;
8964;SDS011;4517;49.020;12.066;2022-11-15T07:11:00;36.00;;;22.73;;
8964;SDS011;4517;49.020;12.066;2022-11-15T07:13:28;45.37;;;24.37;;
8964;SDS011;4517;49.020;12.066;2022-11-15T07:15:58;40.07;;;24.87;;
8964;SDS011;4517;49.020;12.066;2022-11-15T07:18:26;42.00;;;24.00;;
8964;SDS011;4517;49.020;12.066;2022-11-15T07:20:52;38.70;;;24.70;;
8964;SDS011;4517;49.020;12.066;2022-11-15T07:23:18;44.47;;;28.43;;
8964;SDS011;4517;49.020;12.066;2022-11-15T07:25:43;39.90;;;23.07;;
8964;SDS011;4517;49.020;12.066;2022-11-15T07:28:09;42.90;;;24.20;;
8964;SDS011;4517;49.020;12.066;2022-11-15T07:30:34;50.20;;;26.07;;
8964;SDS011;4517;49.020;12.066;2022-11-15T07:33:00;46.00;;;26.10;;
8964;SDS011;4517;49.020;12.066;2022-11-15T07:35:26;41.93;;;24.77;;
8964;SDS011;4517;49.020;12.066;2022-11-15T07:37:56;44.20;;;25.33;;
8964;SDS011;4517;49.020;12.066;2022-11-15T07:40:24;49.87;;;24.80;;
8964;SDS011;4517;49.020;12.066;2022-11-15T07:43:03;36.43;;;22.87;;
8964;SDS011;4517;49.020;12.066;2022-11-15T07:45:31;44.13;;;24.80;;
8964;SDS011;4517;49.020;12.066;2022-11-15T07:47:58;41.10;;;25.13;;
8964;SDS011;4517;49.020;12.066;2022-11-15T07:50:24;34.60;;;23.63;;
8964;SDS011;4517;49.020;12.066;2022-11-15T07:52:55;37.80;;;23.50;;
8964;SDS011;4517;49.020;12.066;2022-11-15T07:55:22;41.07;;;25.13;;
8964;SDS011;4517;49.020;12.066;2022-11-15T07:57:48;47.77;;;24.93;;
8964;SDS011;4517;49.020;12.066;2022-11-15T08:00:14;34.93;;;24.50;;
8964;SDS011;4517;49.020;12.066;2022-11-15T08:02:41;37.00;;;22.90;;
8964;SDS011;4517;49.020;12.066;2022-11-15T08:05:07;41.87;;;26.80;;
8964;SDS011;4517;49.020;12.066;2022-11-15T08:07:33;43.80;;;25.10;;
8964;SDS011;4517;49.020;12.066;2022-11-15T08:10:00;36.70;;;24.67;;
8964;SDS011;4517;49.020;12.066;2022-11-15T08:12:26;37.23;;;24.37;;
8964;SDS011;4517;49.020;12.066;2022-11-15T08:14:53;43.63;;;23.30;;
8964;SDS011;4517;49.020;12.066;2022-11-15T08:17:20;39.90;;;25.20;;
8964;SDS011;4517;49.020;12.066;2022-11-15T08:19:46;41.00;;;25.90;;
8964;SDS011;4517;49.020;12.066;2022-11-15T08:22:13;38.60;;;22.77;;
8964;SDS011;4517;49.020;12.066;2022-11-15T08:24:38;32.80;;;24.30;;
8964;SDS011;4517;49.020;12.066;2022-11-15T08:27:04;39.10;;;23.83;;
8964;SDS011;4517;49.020;12.066;2022-11-15T08:29:30;40.03;;;24.47;;
8964;SDS011;4517;49.020;12.066;2022-11-15T08:31:55;36.70;;;23.43;;
8964;SDS011;4517;49.020;12.066;2022-11-15T08:34:21;39.37;;;23.00;;
8964;SDS011;4517;49.020;12.066;2022-11-15T08:36:47;35.93;;;24.33;;
8964;SDS011;4517;49.020;12.066;2022-11-15T08:39:12;32.83;;;24.03;;
8964;SDS011;4517;49.020;12.066;2022-11-15T08:41:38;31.53;;;23.00;;
8964;SDS011;4517;49.020;12.066;2022-11-15T08:44:04;37.60;;;24.17;;
8964;SDS011;4517;49.020;12.066;2022-11-15T08:46:30;32.10;;;22.17;;
8964;SDS011;4517;49.020;12.066;2022-11-15T08:48:55;34.00;;;25.00;;
8964;SDS011;4517;49.020;12.066;2022-11-15T08:51:21;36.77;;;23.40;;
8964;SDS011;4517;49.020;12.066;2022-11-15T08:53:47;35.33;;;23.83;;
8964;SDS011;4517;49.020;12.066;2022-11-15T08:56:13;35.13;;;25.00;;
8964;SDS011;4517;49.020;12.066;2022-11-15T08:58:39;32.80;;;22.93;;
8964;SDS011;4517;49.020;12.066;2022-11-15T09:01:13;35.47;;;24.20;;
8964;SDS011;4517;49.020;12.066;2022-11-15T09:03:41;33.87;;;24.07;;
8964;SDS011;4517;49.020;12.066;2022-11-15T09:06:07;36.70;;;23.50;;
8964;SDS011;4517;49.020;12.066;2022-11-15T09:08:32;36.10;;;22.33;;
8964;SDS011;4517;49.020;12.066;2022-11-15T09:11:02;33.30;;;21.47;;
8964;SDS011;4517;49.020;12.066;2022-11-15T09:13:29;37.23;;;22.03;;
8964;SDS011;4517;49.020;12.066;2022-11-15T09:15:57;29.27;;;22.40;;
8964;SDS011;4517;49.020;12.066;2022-11-15T09:18:24;29.50;;;22.27;;
8964;SDS011;4517;49.020;12.066;2022-11-15T09:20:49;31.63;;;21.93;;
8964;SDS011;4517;49.020;12.066;2022-11-15T09:23:15;32.00;;;24.23;;
8964;SDS011;4517;49.020;12.066;2022-11-15T09:25:41;25.93;;;21.20;;
8964;SDS011;4517;49.020;12.066;2022-11-15T09:28:06;28.23;;;21.33;;
8964;SDS011;4517;49.020;12.066;2022-11-15T09:30:32;27.53;;;20.70;;
8964;SDS011;4517;49.020;12.066;2022-11-15T09:32:58;27.63;;;19.90;;
8964;SDS011;4517;49.020;12.066;2022-11-15T09:35:24;29.87;;;20.57;;
8964;SDS011;4517;49.020;12.066;2022-11-15T09:37:49;25.80;;;19.80;;
8964;SDS011;4517;49.020;12.066;2022-11-15T09:40:15;26.63;;;20.37;;
8964;SDS011;4517;49.020;12.066;2022-11-15T09:42:49;24.63;;;20.10;;
8964;SDS011;4517;49.020;12.066;2022-11-15T09:48:24;29.97;;;21.10;;
8964;SDS011;4517;49.020;12.066;2022-11-15T09:51:01;30.03;;;20.00;;
8964;SDS011;4517;49.020;12.066;2022-11-15T09:53:36;24.30;;;20.70;;
8964;SDS011;4517;49.020;12.066;2022-11-15T09:56:26;31.70;;;22.30;;
8964;SDS011;4517;49.020;12.066;2022-11-15T10:04:29;28.00;;;20.40;;
8964;SDS011;4517;49.020;12.066;2022-11-15T10:10:04;30.50;;;21.23;;
8964;SDS011;4517;49.020;12.066;2022-11-15T10:12:50;25.67;;;20.20;;
8964;SDS011;4517;49.020;12.066;2022-11-15T10:15:17;27.13;;;20.50;;
8964;SDS011;4517;49.020;12.066;2022-11-15T10:18:04;23.50;;;20.37;;
8964;SDS011;4517;49.020;12.066;2022-11-15T10:20:47;26.50;;;20.60;;
8964;SDS011;4517;49.020;12.066;2022-11-15T10:23:16;26.13;;;20.10;;
8964;SDS011;4517;49.020;12.066;2022-11-15T10:25:44;25.23;;;19.60;;
8964;SDS011;4517;49.020;12.066;2022-11-15T10:28:11;23.60;;;18.87;;
8964;SDS011;4517;49.020;12.066;2022-11-15T10:30:40;26.80;;;19.97;;
8964;SDS011;4517;49.020;12.066;2022-11-15T10:33:40;23.47;;;18.10;;
8964;SDS011;4517;49.020;12.066;2022-11-15T10:41:16;26.60;;;20.00;;
8964;SDS011;4517;49.020;12.066;2022-11-15T10:44:22;23.40;;;20.33;;
8964;SDS011;4517;49.020;12.066;2022-11-15T10:46:43;22.70;;;19.30;;
8964;SDS011;4517;49.020;12.066;2022-11-15T10:54:27;25.90;;;17.83;;
8964;SDS011;4517;49.020;12.066;2022-11-15T10:57:14;29.40;;;19.37;;
8964;SDS011;4517;49.020;12.066;2022-11-15T10:59:54;26.30;;;18.83;;
8964;SDS011;4517;49.020;12.066;2022-11-15T11:04:56;24.90;;;18.50;;
8964;SDS011;4517;49.020;12.066;2022-11-15T11:07:24;30.77;;;19.17;;
8964;SDS011;4517;49.020;12.066;2022-11-15T11:09:58;22.93;;;17.50;;
8964;SDS011;4517;49.020;12.066;2022-11-15T11:12:30;26.20;;;18.80;;
8964;SDS011;4517;49.020;12.066;2022-11-15T11:14:57;28.77;;;19.33;;
8964;SDS011;4517;49.020;12.066;2022-11-15T11:20:10;24.77;;;18.17;;
8964;SDS011;4517;49.020;12.066;2022-11-15T11:31:20;24.93;;;18.53;;
8964;SDS011;4517;49.020;12.066;2022-11-15T11:42:36;19.27;;;14.50;;
8964;SDS011;4517;49.020;12.066;2022-11-15T11:48:22;17.90;;;14.63;;
8964;SDS011;4517;49.020;12.066;2022-11-15T11:50:59;20.10;;;14.60;;
8964;SDS011;4517;49.020;12.066;2022-11-15T11:53:40;16.03;;;13.53;;
8964;SDS011;4517;49.020;12.066;2022-11-15T11:56:21;19.17;;;15.80;;
8964;SDS011;4517;49.020;12.066;2022-11-15T11:58:56;18.13;;;15.33;;
8964;SDS011;4517;49.020;12.066;2022-11-15T12:01:28;16.70;;;14.60;;
8964;SDS011;4517;49.020;12.066;2022-11-15T12:04:20;17.97;;;15.47;;
8964;SDS011;4517;49.020;12.066;2022-11-15T12:15:02;15.93;;;14.33;;
8964;SDS011;4517;49.020;12.066;2022-11-15T12:17:38;17.03;;;15.10;;
8964;SDS011;4517;49.020;12.066;2022-11-15T12:20:25;16.57;;;14.33;;
8964;SDS011;4517;49.020;12.066;2022-11-15T12:22:55;19.37;;;14.87;;
8964;SDS011;4517;49.020;12.066;2022-11-15T12:26:09;18.63;;;14.60;;
8964;SDS011;4517;49.020;12.066;2022-11-15T12:28:37;18.83;;;14.80;;
8964;SDS011;4517;49.020;12.066;2022-11-15T12:31:18;17.77;;;15.93;;
8964;SDS011;4517;49.020;12.066;2022-11-15T12:33:49;18.10;;;14.80;;
8964;SDS011;4517;49.020;12.066;2022-11-15T12:41:28;20.93;;;14.00;;
8964;SDS011;4517;49.020;12.066;2022-11-15T12:43:54;18.83;;;14.20;;
8964;SDS011;4517;49.020;12.066;2022-11-15T12:54:48;16.50;;;13.70;;
8964;SDS011;4517;49.020;12.066;2022-11-15T13:02:33;19.87;;;15.13;;
8964;SDS011;4517;49.020;12.066;2022-11-15T13:17:42;19.27;;;14.37;;
8964;SDS011;4517;49.020;12.066;2022-11-15T13:22:51;15.70;;;13.80;;
8964;SDS011;4517;49.020;12.066;2022-11-15T13:25:27;15.13;;;12.57;;
8964;SDS011;4517;49.020;12.066;2022-11-15T13:27:58;19.37;;;12.90;;
8964;SDS011;4517;49.020;12.066;2022-11-15T13:30:30;16.93;;;13.23;;
8964;SDS011;4517;49.020;12.066;2022-11-15T13:33:07;18.13;;;14.73;;
8964;SDS011;4517;49.020;12.066;2022-11-15T13:35:39;13.90;;;12.00;;
8964;SDS011;4517;49.020;12.066;2022-11-15T13:38:15;17.50;;;12.90;;
8964;SDS011;4517;49.020;12.066;2022-11-15T13:40:59;17.27;;;13.10;;
8964;SDS011;4517;49.020;12.066;2022-11-15T13:43:36;16.17;;;12.90;;
8964;SDS011;4517;49.020;12.066;2022-11-15T13:46:06;21.57;;;14.00;;
8964;SDS011;4517;49.020;12.066;2022-11-15T13:48:32;15.70;;;12.77;;
8964;SDS011;4517;49.020;12.066;2022-11-15T13:50:58;15.50;;;13.47;;
8964;SDS011;4517;49.020;12.066;2022-11-15T13:53:26;13.80;;;12.40;;
8964;SDS011;4517;49.020;12.066;2022-11-15T13:55:52;14.57;;;13.07;;
8964;SDS011;4517;49.020;12.066;2022-11-15T13:58:20;13.93;;;12.13;;
8964;SDS011;4517;49.020;12.066;2022-11-15T14:00:45;15.00;;;12.97;;
8964;SDS011;4517;49.020;12.066;2022-11-15T14:03:16;18.43;;;13.27;;
8964;SDS011;4517;49.020;12.066;2022-11-15T14:05:46;12.67;;;11.03;;
8964;SDS011;4517;49.020;12.066;2022-11-15T14:08:27;13.67;;;12.23;;
8964;SDS011;4517;49.020;12.066;2022-11-15T14:11:07;13.53;;;12.13;;
8964;SDS011;4517;49.020;12.066;2022-11-15T14:14:01;14.60;;;11.77;;
8964;SDS011;4517;49.020;12.066;2022-11-15T14:16:32;17.53;;;12.40;;
8964;SDS011;4517;49.020;12.066;2022-11-15T14:19:03;21.90;;;12.23;;
8964;SDS011;4517;49.020;12.066;2022-11-15T14:21:31;16.07;;;11.30;;
8964;SDS011;4517;49.020;12.066;2022-11-15T14:26:45;14.67;;;11.73;;
8964;SDS011;4517;49.020;12.066;2022-11-15T14:29:27;19.00;;;13.80;;
8964;SDS011;4517;49.020;12.066;2022-11-15T14:32:05;12.47;;;11.10;;
8964;SDS011;4517;49.020;12.066;2022-11-15T14:34:37;14.30;;;11.00;;
8964;SDS011;4517;49.020;12.066;2022-11-15T14:37:03;11.83;;;10.27;;
8964;SDS011;4517;49.020;12.066;2022-11-15T14:39:28;12.60;;;9.80;;
8964;SDS011;4517;49.020;12.066;2022-11-15T14:41:54;11.93;;;9.70;;
8964;SDS011;4517;49.020;12.066;2022-11-15T14:44:19;11.47;;;10.30;;
8964;SDS011;4517;49.020;12.066;2022-11-15T14:46:47;13.80;;;9.90;;
8964;SDS011;4517;49.020;12.066;2022-11-15T14:49:13;12.13;;;9.50;;
8964;SDS011;4517;49.020;12.066;2022-11-15T14:51:40;11.13;;;10.03;;
8964;SDS011;4517;49.020;12.066;2022-11-15T14:54:08;15.03;;;10.30;;
8964;SDS011;4517;49.020;12.066;2022-11-15T14:56:35;10.90;;;9.60;;
8964;SDS011;4517;49.020;12.066;2022-11-15T14:59:10;18.43;;;10.30;;
8964;SDS011;4517;49.020;12.066;2022-11-15T15:01:37;10.70;;;9.70;;
8964;SDS011;4517;49.020;12.066;2022-11-15T15:04:03;13.97;;;10.83;;
8964;SDS011;4517;49.020;12.066;2022-11-15T15:06:44;12.40;;;9.23;;
8964;SDS011;4517;49.020;12.066;2022-11-15T15:09:09;14.27;;;11.00;;
8964;SDS011;4517;49.020;12.066;2022-11-15T15:11:35;13.40;;;11.83;;
8964;SDS011;4517;49.020;12.066;2022-11-15T15:14:01;14.43;;;11.03;;
8964;SDS011;4517;49.020;12.066;2022-11-15T15:16:28;15.17;;;10.37;;
8964;SDS011;4517;49.020;12.066;2022-11-15T15:18:55;13.87;;;10.97;;
8964;SDS011;4517;49.020;12.066;2022-11-15T15:21:23;11.23;;;10.13;;
8964;SDS011;4517;49.020;12.066;2022-11-15T15:23:51;17.00;;;12.50;;
8964;SDS011;4517;49.020;12.066;2022-11-15T15:26:19;19.70;;;13.07;;
8964;SDS011;4517;49.020;12.066;2022-11-15T15:28:45;15.77;;;13.20;;
8964;SDS011;4517;49.020;12.066;2022-11-15T15:31:13;21.43;;;12.10;;
8964;SDS011;4517;49.020;12.066;2022-11-15T15:33:39;16.23;;;12.30;;
8964;SDS011;4517;49.020;12.066;2022-11-15T15:36:08;22.27;;;14.07;;
8964;SDS011;4517;49.020;12.066;2022-11-15T15:38:38;23.87;;;15.27;;
8964;SDS011;4517;49.020;12.066;2022-11-15T15:41:12;26.60;;;15.90;;
8964;SDS011;4517;49.020;12.066;2022-11-15T15:43:39;26.03;;;14.70;;
8964;SDS011;4517;49.020;12.066;2022-11-15T15:46:09;20.20;;;13.67;;
8964;SDS011;4517;49.020;12.066;2022-11-15T15:48:37;20.37;;;14.67;;
8964;SDS011;4517;49.020;12.066;2022-11-15T15:51:04;20.80;;;14.20;;
8964;SDS011;4517;49.020;12.066;2022-11-15T15:53:30;21.70;;;16.00;;
8964;SDS011;4517;49.020;12.066;2022-11-15T15:55:56;24.60;;;15.30;;
8964;SDS011;4517;49.020;12.066;2022-11-15T15:58:22;27.20;;;14.40;;
8964;SDS011;4517;49.020;12.066;2022-11-15T16:00:47;20.70;;;13.63;;
8964;SDS011;4517;49.020;12.066;2022-11-15T16:03:13;16.60;;;13.83;;
8964;SDS011;4517;49.020;12.066;2022-11-15T16:05:39;19.63;;;13.70;;
8964;SDS011;4517;49.020;12.066;2022-11-15T16:08:04;22.03;;;14.00;;
8964;SDS011;4517;49.020;12.066;2022-11-15T16:10:31;41.23;;;15.33;;
8964;SDS011;4517;49.020;12.066;2022-11-15T16:13:01;30.70;;;23.60;;
8964;SDS011;4517;49.020;12.066;2022-11-15T16:15:28;33.07;;;22.33;;
8964;SDS011;4517;49.020;12.066;2022-11-15T16:17:57;30.47;;;19.20;;
8964;SDS011;4517;49.020;12.066;2022-11-15T16:20:35;21.23;;;14.00;;
8964;SDS011;4517;49.020;12.066;2022-11-15T16:23:06;21.87;;;14.50;;
8964;SDS011;4517;49.020;12.066;2022-11-15T16:25:55;19.93;;;14.83;;
8964;SDS011;4517;49.020;12.066;2022-11-15T16:28:28;18.23;;;13.40;;
8964;SDS011;4517;49.020;12.066;2022-11-15T16:30:59;21.27;;;13.00;;
8964;SDS011;4517;49.020;12.066;2022-11-15T16:33:26;16.40;;;13.00;;
8964;SDS011;4517;49.020;12.066;2022-11-15T16:35:51;22.77;;;14.37;;
8964;SDS011;4517;49.020;12.066;2022-11-15T16:38:17;23.80;;;14.07;;
8964;SDS011;4517;49.020;12.066;2022-11-15T16:40:42;22.17;;;15.20;;
8964;SDS011;4517;49.020;12.066;2022-11-15T16:43:08;18.50;;;14.10;;
8964;SDS011;4517;49.020;12.066;2022-11-15T16:45:34;19.67;;;14.83;;